sensor_id;sensor_type;location;lat;lon;timestamp;P1;durP1;ratioP1;P2;durP2;ratioP2
30010;SDS011;16851;53.564;8.112;2023-09-19T00:03:42;9.25;;;2.13;;
30010;SDS011;16851;53.564;8.112;2023-09-19T00:08:46;9.35;;;1.70;;
30010;SDS011;16851;53.564;8.112;2023-09-19T00:13:52;6.75;;;1.63;;
30010;SDS011;16851;53.564;8.112;2023-09-19T00:18:54;8.10;;;1.70;;
30010;SDS011;16851;53.564;8.112;2023-09-19T00:23:59;9.55;;;2.10;;
30010;SDS011;16851;53.564;8.112;2023-09-19T00:29:05;6.15;;;2.03;;
30010;SDS011;16851;53.564;8.112;2023-09-19T00:34:10;11.57;;;2.00;;
30010;SDS011;16851;53.564;8.112;2023-09-19T00:39:12;7.50;;;1.90;;
30010;SDS011;16851;53.564;8.112;2023-09-19T00:44:14;12.00;;;2.35;;
30010;SDS011;16851;53.564;8.112;2023-09-19T00:49:22;9.60;;;2.03;;
30010;SDS011;16851;53.564;8.112;2023-09-19T00:54:29;15.90;;;2.35;;
30010;SDS011;16851;53.564;8.112;2023-09-19T00:59:35;8.07;;;1.98;;
30010;SDS011;16851;53.564;8.112;2023-09-19T01:04:37;8.05;;;1.83;;
30010;SDS011;16851;53.564;8.112;2023-09-19T01:09:57;10.98;;;1.90;;
30010;SDS011;16851;53.564;8.112;2023-09-19T01:30:43;10.98;;;1.77;;
30010;SDS011;16851;53.564;8.112;2023-09-19T01:35:47;9.55;;;1.88;;
30010;SDS011;16851;53.564;8.112;2023-09-19T01:40:57;9.38;;;2.05;;
30010;SDS011;16851;53.564;8.112;2023-09-19T01:46:28;13.43;;;2.47;;
30010;SDS011;16851;53.564;8.112;2023-09-19T01:52:18;8.25;;;2.00;;
30010;SDS011;16851;53.564;8.112;2023-09-19T01:57:27;10.15;;;2.17;;
30010;SDS011;16851;53.564;8.112;2023-09-19T02:02:42;8.65;;;2.03;;
30010;SDS011;16851;53.564;8.112;2023-09-19T02:07:49;11.45;;;2.00;;
30010;SDS011;16851;53.564;8.112;2023-09-19T02:12:51;8.93;;;2.08;;
30010;SDS011;16851;53.564;8.112;2023-09-19T02:17:53;12.15;;;1.90;;
30010;SDS011;16851;53.564;8.112;2023-09-19T02:22:55;8.85;;;1.90;;
30010;SDS011;16851;53.564;8.112;2023-09-19T02:27:57;7.30;;;1.77;;
30010;SDS011;16851;53.564;8.112;2023-09-19T02:33:05;12.88;;;2.15;;
30010;SDS011;16851;53.564;8.112;2023-09-19T02:38:09;12.52;;;2.35;;
30010;SDS011;16851;53.564;8.112;2023-09-19T02:43:13;11.02;;;2.20;;
30010;SDS011;16851;53.564;8.112;2023-09-19T02:48:24;10.75;;;2.38;;
30010;SDS011;16851;53.564;8.112;2023-09-19T02:53:27;14.18;;;2.30;;
30010;SDS011;16851;53.564;8.112;2023-09-19T02:58:29;8.43;;;2.05;;
30010;SDS011;16851;53.564;8.112;2023-09-19T03:03:32;11.13;;;2.25;;
30010;SDS011;16851;53.564;8.112;2023-09-19T03:08:34;8.57;;;1.73;;
30010;SDS011;16851;53.564;8.112;2023-09-19T03:13:41;16.52;;;2.35;;
30010;SDS011;16851;53.564;8.112;2023-09-19T03:18:45;9.05;;;2.25;;
30010;SDS011;16851;53.564;8.112;2023-09-19T03:23:51;9.88;;;1.92;;
30010;SDS011;16851;53.564;8.112;2023-09-19T03:28:55;13.55;;;2.60;;
30010;SDS011;16851;53.564;8.112;2023-09-19T03:34:00;5.93;;;1.70;;
30010;SDS011;16851;53.564;8.112;2023-09-19T03:39:07;10.88;;;1.80;;
30010;SDS011;16851;53.564;8.112;2023-09-19T03:44:09;10.82;;;1.95;;
30010;SDS011;16851;53.564;8.112;2023-09-19T03:49:13;14.90;;;2.45;;
30010;SDS011;16851;53.564;8.112;2023-09-19T03:54:15;12.65;;;2.20;;
30010;SDS011;16851;53.564;8.112;2023-09-19T03:59:21;7.00;;;1.60;;
30010;SDS011;16851;53.564;8.112;2023-09-19T04:04:25;7.78;;;1.63;;
30010;SDS011;16851;53.564;8.112;2023-09-19T04:09:29;9.43;;;1.90;;
30010;SDS011;16851;53.564;8.112;2023-09-19T04:14:32;11.13;;;2.22;;
30010;SDS011;16851;53.564;8.112;2023-09-19T04:19:34;10.10;;;2.05;;
30010;SDS011;16851;53.564;8.112;2023-09-19T04:24:39;11.27;;;2.20;;
30010;SDS011;16851;53.564;8.112;2023-09-19T04:29:41;15.80;;;3.25;;
30010;SDS011;16851;53.564;8.112;2023-09-19T04:34:46;11.52;;;2.38;;
30010;SDS011;16851;53.564;8.112;2023-09-19T04:39:49;13.00;;;2.15;;
30010;SDS011;16851;53.564;8.112;2023-09-19T04:44:53;9.45;;;2.25;;
30010;SDS011;16851;53.564;8.112;2023-09-19T04:49:57;11.05;;;2.13;;
30010;SDS011;16851;53.564;8.112;2023-09-19T04:55:00;9.65;;;2.28;;
30010;SDS011;16851;53.564;8.112;2023-09-19T05:00:05;10.25;;;2.10;;
30010;SDS011;16851;53.564;8.112;2023-09-19T05:05:16;7.25;;;2.00;;
30010;SDS011;16851;53.564;8.112;2023-09-19T05:10:20;7.47;;;1.90;;
30010;SDS011;16851;53.564;8.112;2023-09-19T05:15:23;12.25;;;2.53;;
30010;SDS011;16851;53.564;8.112;2023-09-19T05:20:25;12.77;;;2.63;;
30010;SDS011;16851;53.564;8.112;2023-09-19T05:25:37;11.90;;;2.47;;
30010;SDS011;16851;53.564;8.112;2023-09-19T05:30:40;13.18;;;2.33;;
30010;SDS011;16851;53.564;8.112;2023-09-19T05:35:50;12.18;;;2.63;;
30010;SDS011;16851;53.564;8.112;2023-09-19T05:40:52;11.02;;;2.58;;
30010;SDS011;16851;53.564;8.112;2023-09-19T05:45:56;9.15;;;2.00;;
30010;SDS011;16851;53.564;8.112;2023-09-19T05:51:00;10.35;;;2.28;;
30010;SDS011;16851;53.564;8.112;2023-09-19T05:56:07;13.05;;;2.22;;
30010;SDS011;16851;53.564;8.112;2023-09-19T06:01:10;9.65;;;1.95;;
30010;SDS011;16851;53.564;8.112;2023-09-19T06:06:12;14.75;;;1.92;;
30010;SDS011;16851;53.564;8.112;2023-09-19T06:11:14;8.23;;;1.88;;
30010;SDS011;16851;53.564;8.112;2023-09-19T06:16:16;12.73;;;2.17;;
30010;SDS011;16851;53.564;8.112;2023-09-19T06:21:22;9.73;;;2.20;;
30010;SDS011;16851;53.564;8.112;2023-09-19T06:26:24;10.77;;;2.20;;
30010;SDS011;16851;53.564;8.112;2023-09-19T06:31:34;11.50;;;2.20;;
30010;SDS011;16851;53.564;8.112;2023-09-19T06:36:35;11.13;;;2.33;;
30010;SDS011;16851;53.564;8.112;2023-09-19T06:41:37;9.63;;;2.10;;
30010;SDS011;16851;53.564;8.112;2023-09-19T06:46:44;13.35;;;2.92;;
30010;SDS011;16851;53.564;8.112;2023-09-19T06:51:55;12.27;;;2.50;;
30010;SDS011;16851;53.564;8.112;2023-09-19T06:57:01;10.20;;;2.47;;
30010;SDS011;16851;53.564;8.112;2023-09-19T07:02:04;14.60;;;2.83;;
30010;SDS011;16851;53.564;8.112;2023-09-19T07:07:07;13.43;;;2.17;;
30010;SDS011;16851;53.564;8.112;2023-09-19T07:12:12;9.45;;;2.22;;
30010;SDS011;16851;53.564;8.112;2023-09-19T07:17:17;13.90;;;2.60;;
30010;SDS011;16851;53.564;8.112;2023-09-19T07:22:24;8.82;;;2.15;;
30010;SDS011;16851;53.564;8.112;2023-09-19T07:27:34;12.30;;;2.85;;
30010;SDS011;16851;53.564;8.112;2023-09-19T07:32:41;15.82;;;3.35;;
30010;SDS011;16851;53.564;8.112;2023-09-19T07:37:43;12.07;;;2.65;;
30010;SDS011;16851;53.564;8.112;2023-09-19T07:42:51;13.23;;;3.15;;
30010;SDS011;16851;53.564;8.112;2023-09-19T07:47:58;13.25;;;2.90;;
30010;SDS011;16851;53.564;8.112;2023-09-19T07:53:03;16.73;;;3.15;;
30010;SDS011;16851;53.564;8.112;2023-09-19T07:58:08;14.90;;;2.92;;
30010;SDS011;16851;53.564;8.112;2023-09-19T08:03:14;18.27;;;2.97;;
30010;SDS011;16851;53.564;8.112;2023-09-19T08:08:22;13.80;;;2.85;;
30010;SDS011;16851;53.564;8.112;2023-09-19T08:13:27;13.82;;;2.58;;
30010;SDS011;16851;53.564;8.112;2023-09-19T08:18:29;12.90;;;3.28;;
30010;SDS011;16851;53.564;8.112;2023-09-19T08:23:34;13.13;;;2.97;;
30010;SDS011;16851;53.564;8.112;2023-09-19T08:28:36;14.57;;;3.15;;
30010;SDS011;16851;53.564;8.112;2023-09-19T08:33:39;12.48;;;2.90;;
30010;SDS011;16851;53.564;8.112;2023-09-19T08:38:46;11.57;;;2.70;;
30010;SDS011;16851;53.564;8.112;2023-09-19T08:43:51;11.80;;;2.47;;
30010;SDS011;16851;53.564;8.112;2023-09-19T08:54:33;12.57;;;2.83;;
30010;SDS011;16851;53.564;8.112;2023-09-19T08:59:39;16.70;;;3.15;;
30010;SDS011;16851;53.564;8.112;2023-09-19T09:04:43;13.82;;;3.13;;
30010;SDS011;16851;53.564;8.112;2023-09-19T09:09:45;12.27;;;2.40;;
30010;SDS011;16851;53.564;8.112;2023-09-19T09:14:50;10.77;;;2.45;;
30010;SDS011;16851;53.564;8.112;2023-09-19T09:19:52;16.98;;;2.80;;
30010;SDS011;16851;53.564;8.112;2023-09-19T09:24:57;10.23;;;2.47;;
30010;SDS011;16851;53.564;8.112;2023-09-19T09:30:02;12.75;;;3.45;;
30010;SDS011;16851;53.564;8.112;2023-09-19T09:35:07;16.05;;;2.95;;
30010;SDS011;16851;53.564;8.112;2023-09-19T09:40:12;15.45;;;2.40;;
30010;SDS011;16851;53.564;8.112;2023-09-19T09:50:34;11.07;;;2.90;;
30010;SDS011;16851;53.564;8.112;2023-09-19T09:56:22;10.88;;;2.45;;
30010;SDS011;16851;53.564;8.112;2023-09-19T10:01:10;13.20;;;2.53;;
30010;SDS011;16851;53.564;8.112;2023-09-19T10:06:16;13.10;;;2.33;;
30010;SDS011;16851;53.564;8.112;2023-09-19T10:11:25;16.70;;;2.60;;
30010;SDS011;16851;53.564;8.112;2023-09-19T10:16:34;10.57;;;2.38;;
30010;SDS011;16851;53.564;8.112;2023-09-19T10:21:40;12.85;;;2.85;;
30010;SDS011;16851;53.564;8.112;2023-09-19T10:26:45;12.13;;;3.10;;
30010;SDS011;16851;53.564;8.112;2023-09-19T10:31:47;15.70;;;3.10;;
30010;SDS011;16851;53.564;8.112;2023-09-19T10:36:52;12.10;;;2.63;;
30010;SDS011;16851;53.564;8.112;2023-09-19T10:42:01;12.80;;;3.10;;
30010;SDS011;16851;53.564;8.112;2023-09-19T10:47:06;19.75;;;3.45;;
30010;SDS011;16851;53.564;8.112;2023-09-19T10:52:11;12.73;;;2.90;;
30010;SDS011;16851;53.564;8.112;2023-09-19T10:57:21;17.25;;;3.13;;
30010;SDS011;16851;53.564;8.112;2023-09-19T11:02:25;17.75;;;2.88;;
30010;SDS011;16851;53.564;8.112;2023-09-19T11:07:27;19.08;;;3.40;;
30010;SDS011;16851;53.564;8.112;2023-09-19T11:33:29;15.15;;;2.92;;
30010;SDS011;16851;53.564;8.112;2023-09-19T11:43:49;10.85;;;2.60;;
30010;SDS011;16851;53.564;8.112;2023-09-19T11:49:05;12.63;;;3.42;;
30010;SDS011;16851;53.564;8.112;2023-09-19T11:54:14;16.55;;;3.35;;
30010;SDS011;16851;53.564;8.112;2023-09-19T11:59:30;19.05;;;2.97;;
30010;SDS011;16851;53.564;8.112;2023-09-19T12:04:33;19.33;;;3.13;;
30010;SDS011;16851;53.564;8.112;2023-09-19T12:09:46;11.32;;;3.22;;
30010;SDS011;16851;53.564;8.112;2023-09-19T12:14:50;19.70;;;3.70;;
30010;SDS011;16851;53.564;8.112;2023-09-19T12:20:01;16.33;;;3.67;;
30010;SDS011;16851;53.564;8.112;2023-09-19T12:25:08;13.60;;;3.20;;
30010;SDS011;16851;53.564;8.112;2023-09-19T12:30:12;10.55;;;2.42;;
30010;SDS011;16851;53.564;8.112;2023-09-19T12:35:34;12.38;;;2.63;;
30010;SDS011;16851;53.564;8.112;2023-09-19T12:40:37;9.27;;;2.67;;
30010;SDS011;16851;53.564;8.112;2023-09-19T12:45:44;13.02;;;2.72;;
30010;SDS011;16851;53.564;8.112;2023-09-19T12:51:05;19.73;;;3.15;;
30010;SDS011;16851;53.564;8.112;2023-09-19T12:56:11;12.50;;;3.25;;
30010;SDS011;16851;53.564;8.112;2023-09-19T13:01:22;12.85;;;3.70;;
30010;SDS011;16851;53.564;8.112;2023-09-19T13:06:36;9.52;;;2.25;;
30010;SDS011;16851;53.564;8.112;2023-09-19T13:11:42;12.55;;;2.65;;
30010;SDS011;16851;53.564;8.112;2023-09-19T13:27:56;22.15;;;3.28;;
30010;SDS011;16851;53.564;8.112;2023-09-19T13:33:06;8.77;;;2.53;;
30010;SDS011;16851;53.564;8.112;2023-09-19T13:38:12;14.27;;;2.47;;
30010;SDS011;16851;53.564;8.112;2023-09-19T13:43:17;12.07;;;2.58;;
30010;SDS011;16851;53.564;8.112;2023-09-19T13:48:23;18.60;;;2.75;;
30010;SDS011;16851;53.564;8.112;2023-09-19T13:53:25;13.20;;;2.33;;
30010;SDS011;16851;53.564;8.112;2023-09-19T13:58:27;9.75;;;2.78;;
30010;SDS011;16851;53.564;8.112;2023-09-19T14:03:35;15.35;;;2.65;;
30010;SDS011;16851;53.564;8.112;2023-09-19T14:08:40;13.73;;;2.55;;
30010;SDS011;16851;53.564;8.112;2023-09-19T14:13:42;13.57;;;2.05;;
30010;SDS011;16851;53.564;8.112;2023-09-19T14:18:50;12.65;;;2.65;;
30010;SDS011;16851;53.564;8.112;2023-09-19T14:23:57;14.27;;;2.13;;
30010;SDS011;16851;53.564;8.112;2023-09-19T14:29:01;11.80;;;2.33;;
30010;SDS011;16851;53.564;8.112;2023-09-19T14:34:06;11.88;;;2.08;;
30010;SDS011;16851;53.564;8.112;2023-09-19T14:39:08;14.23;;;2.33;;
30010;SDS011;16851;53.564;8.112;2023-09-19T14:44:12;11.45;;;1.83;;
30010;SDS011;16851;53.564;8.112;2023-09-19T14:49:24;6.72;;;2.25;;
30010;SDS011;16851;53.564;8.112;2023-09-19T14:54:26;12.15;;;1.90;;
30010;SDS011;16851;53.564;8.112;2023-09-19T14:59:31;11.23;;;2.42;;
30010;SDS011;16851;53.564;8.112;2023-09-19T15:04:36;11.23;;;2.40;;
30010;SDS011;16851;53.564;8.112;2023-09-19T15:09:39;12.70;;;2.40;;
30010;SDS011;16851;53.564;8.112;2023-09-19T15:14:41;12.75;;;1.70;;
30010;SDS011;16851;53.564;8.112;2023-09-19T15:19:44;8.73;;;1.77;;
30010;SDS011;16851;53.564;8.112;2023-09-19T15:24:50;16.02;;;2.65;;
30010;SDS011;16851;53.564;8.112;2023-09-19T15:29:53;9.90;;;1.90;;
30010;SDS011;16851;53.564;8.112;2023-09-19T15:34:55;15.57;;;2.15;;
30010;SDS011;16851;53.564;8.112;2023-09-19T15:40:00;10.43;;;1.83;;
30010;SDS011;16851;53.564;8.112;2023-09-19T15:45:20;9.20;;;1.67;;
30010;SDS011;16851;53.564;8.112;2023-09-19T15:50:22;10.57;;;2.20;;
30010;SDS011;16851;53.564;8.112;2023-09-19T15:55:24;7.95;;;1.90;;
30010;SDS011;16851;53.564;8.112;2023-09-19T16:00:27;7.28;;;1.55;;
30010;SDS011;16851;53.564;8.112;2023-09-19T16:05:36;8.52;;;1.85;;
30010;SDS011;16851;53.564;8.112;2023-09-19T16:10:38;12.52;;;2.17;;
30010;SDS011;16851;53.564;8.112;2023-09-19T16:15:41;10.05;;;2.03;;
30010;SDS011;16851;53.564;8.112;2023-09-19T16:20:45;8.98;;;1.95;;
30010;SDS011;16851;53.564;8.112;2023-09-19T16:25:59;9.98;;;2.00;;
30010;SDS011;16851;53.564;8.112;2023-09-19T16:31:02;11.48;;;1.92;;
30010;SDS011;16851;53.564;8.112;2023-09-19T16:36:18;9.82;;;2.08;;
30010;SDS011;16851;53.564;8.112;2023-09-19T16:41:20;5.03;;;1.55;;
30010;SDS011;16851;53.564;8.112;2023-09-19T16:46:23;10.93;;;2.63;;
30010;SDS011;16851;53.564;8.112;2023-09-19T16:51:25;15.27;;;1.90;;
30010;SDS011;16851;53.564;8.112;2023-09-19T16:56:32;10.00;;;1.92;;
30010;SDS011;16851;53.564;8.112;2023-09-19T17:01:38;8.05;;;1.60;;
30010;SDS011;16851;53.564;8.112;2023-09-19T17:06:42;9.20;;;1.40;;
30010;SDS011;16851;53.564;8.112;2023-09-19T17:11:48;11.18;;;1.85;;
30010;SDS011;16851;53.564;8.112;2023-09-19T17:16:56;7.45;;;1.88;;
30010;SDS011;16851;53.564;8.112;2023-09-19T17:21:58;10.98;;;1.65;;
30010;SDS011;16851;53.564;8.112;2023-09-19T17:27:00;9.43;;;1.77;;
30010;SDS011;16851;53.564;8.112;2023-09-19T17:32:05;6.13;;;2.00;;
30010;SDS011;16851;53.564;8.112;2023-09-19T17:37:09;8.77;;;1.60;;
30010;SDS011;16851;53.564;8.112;2023-09-19T17:42:12;8.15;;;1.92;;
30010;SDS011;16851;53.564;8.112;2023-09-19T17:47:14;8.77;;;1.65;;
30010;SDS011;16851;53.564;8.112;2023-09-19T17:52:19;8.10;;;1.80;;
30010;SDS011;16851;53.564;8.112;2023-09-19T17:57:22;5.75;;;1.60;;
30010;SDS011;16851;53.564;8.112;2023-09-19T18:02:24;6.50;;;2.00;;
30010;SDS011;16851;53.564;8.112;2023-09-19T18:07:30;9.32;;;2.33;;
30010;SDS011;16851;53.564;8.112;2023-09-19T18:12:36;5.47;;;1.67;;
30010;SDS011;16851;53.564;8.112;2023-09-19T18:17:40;5.95;;;1.38;;
30010;SDS011;16851;53.564;8.112;2023-09-19T18:22:45;3.78;;;1.38;;
30010;SDS011;16851;53.564;8.112;2023-09-19T18:27:49;5.28;;;1.13;;
30010;SDS011;16851;53.564;8.112;2023-09-19T18:32:51;8.57;;;1.73;;
30010;SDS011;16851;53.564;8.112;2023-09-19T18:45:00;10.57;;;2.33;;
30010;SDS011;16851;53.564;8.112;2023-09-19T18:50:02;14.02;;;1.95;;
30010;SDS011;16851;53.564;8.112;2023-09-19T18:55:05;7.88;;;1.95;;
30010;SDS011;16851;53.564;8.112;2023-09-19T19:00:13;6.97;;;1.95;;
30010;SDS011;16851;53.564;8.112;2023-09-19T19:05:17;6.53;;;1.63;;
30010;SDS011;16851;53.564;8.112;2023-09-19T19:10:19;9.18;;;2.05;;
30010;SDS011;16851;53.564;8.112;2023-09-19T19:15:23;8.75;;;3.40;;
30010;SDS011;16851;53.564;8.112;2023-09-19T19:20:26;7.40;;;1.80;;
30010;SDS011;16851;53.564;8.112;2023-09-19T19:25:28;5.55;;;1.60;;
30010;SDS011;16851;53.564;8.112;2023-09-19T19:30:30;8.25;;;2.28;;
30010;SDS011;16851;53.564;8.112;2023-09-19T19:35:39;9.57;;;2.00;;
30010;SDS011;16851;53.564;8.112;2023-09-19T19:40:46;10.90;;;1.75;;
30010;SDS011;16851;53.564;8.112;2023-09-19T19:45:57;8.25;;;1.77;;
30010;SDS011;16851;53.564;8.112;2023-09-19T19:51:06;5.93;;;1.38;;
30010;SDS011;16851;53.564;8.112;2023-09-19T19:56:11;6.65;;;1.60;;
30010;SDS011;16851;53.564;8.112;2023-09-19T20:01:15;9.50;;;1.83;;
30010;SDS011;16851;53.564;8.112;2023-09-19T20:06:17;9.13;;;1.83;;
30010;SDS011;16851;53.564;8.112;2023-09-19T20:11:20;8.73;;;2.13;;
30010;SDS011;16851;53.564;8.112;2023-09-19T20:16:28;7.10;;;2.03;;
30010;SDS011;16851;53.564;8.112;2023-09-19T20:21:33;6.35;;;2.10;;
30010;SDS011;16851;53.564;8.112;2023-09-19T20:26:36;6.97;;;2.22;;
30010;SDS011;16851;53.564;8.112;2023-09-19T20:31:40;7.13;;;2.15;;
30010;SDS011;16851;53.564;8.112;2023-09-19T20:36:42;8.02;;;2.60;;
30010;SDS011;16851;53.564;8.112;2023-09-19T20:41:46;7.38;;;2.38;;
30010;SDS011;16851;53.564;8.112;2023-09-19T20:46:49;7.35;;;2.55;;
30010;SDS011;16851;53.564;8.112;2023-09-19T20:51:58;9.07;;;2.25;;
30010;SDS011;16851;53.564;8.112;2023-09-19T20:57:00;10.75;;;2.92;;
30010;SDS011;16851;53.564;8.112;2023-09-19T21:02:02;10.82;;;2.45;;
30010;SDS011;16851;53.564;8.112;2023-09-19T21:07:06;8.85;;;2.78;;
30010;SDS011;16851;53.564;8.112;2023-09-19T21:12:10;8.05;;;2.50;;
30010;SDS011;16851;53.564;8.112;2023-09-19T21:17:15;8.13;;;2.75;;
30010;SDS011;16851;53.564;8.112;2023-09-19T21:22:20;7.25;;;2.63;;
30010;SDS011;16851;53.564;8.112;2023-09-19T21:27:24;8.73;;;2.88;;
30010;SDS011;16851;53.564;8.112;2023-09-19T21:32:31;7.68;;;2.70;;
30010;SDS011;16851;53.564;8.112;2023-09-19T21:37:33;9.90;;;3.28;;
30010;SDS011;16851;53.564;8.112;2023-09-19T21:42:37;9.57;;;2.97;;
30010;SDS011;16851;53.564;8.112;2023-09-19T21:47:41;8.52;;;2.67;;
30010;SDS011;16851;53.564;8.112;2023-09-19T21:52:45;9.65;;;2.88;;
30010;SDS011;16851;53.564;8.112;2023-09-19T21:57:49;7.95;;;3.03;;
30010;SDS011;16851;53.564;8.112;2023-09-19T22:02:58;10.98;;;3.30;;
30010;SDS011;16851;53.564;8.112;2023-09-19T22:08:01;6.07;;;2.80;;
30010;SDS011;16851;53.564;8.112;2023-09-19T22:13:08;11.65;;;3.33;;
30010;SDS011;16851;53.564;8.112;2023-09-19T22:18:16;9.23;;;2.88;;
30010;SDS011;16851;53.564;8.112;2023-09-19T22:23:24;13.18;;;3.05;;
30010;SDS011;16851;53.564;8.112;2023-09-19T22:28:33;7.68;;;3.40;;
30010;SDS011;16851;53.564;8.112;2023-09-19T22:33:45;8.90;;;2.92;;
30010;SDS011;16851;53.564;8.112;2023-09-19T22:38:54;10.50;;;3.33;;
30010;SDS011;16851;53.564;8.112;2023-09-19T22:44:01;6.63;;;3.28;;
30010;SDS011;16851;53.564;8.112;2023-09-19T22:49:09;9.60;;;3.10;;
30010;SDS011;16851;53.564;8.112;2023-09-19T22:54:19;8.05;;;3.30;;
30010;SDS011;16851;53.564;8.112;2023-09-19T22:59:29;7.95;;;3.00;;
30010;SDS011;16851;53.564;8.112;2023-09-19T23:04:33;8.20;;;3.20;;
30010;SDS011;16851;53.564;8.112;2023-09-19T23:09:36;7.45;;;3.25;;
30010;SDS011;16851;53.564;8.112;2023-09-19T23:14:40;8.85;;;3.28;;
30010;SDS011;16851;53.564;8.112;2023-09-19T23:19:43;10.05;;;2.90;;
30010;SDS011;16851;53.564;8.112;2023-09-19T23:24:52;12.80;;;2.97;;
30010;SDS011;16851;53.564;8.112;2023-09-19T23:30:16;11.15;;;2.95;;
30010;SDS011;16851;53.564;8.112;2023-09-19T23:35:26;9.15;;;3.17;;
30010;SDS011;16851;53.564;8.112;2023-09-19T23:40:31;12.63;;;2.90;;
30010;SDS011;16851;53.564;8.112;2023-09-19T23:45:33;10.00;;;3.13;;
30010;SDS011;16851;53.564;8.112;2023-09-19T23:50:41;8.95;;;2.50;;
30010;SDS011;16851;53.564;8.112;2023-09-19T23:55:44;12.52;;;2.90;;
